createdAt,value
2022-10-02T00:02:01.028Z,47.02
2022-10-02T00:04:36.959Z,46.89
2022-10-02T00:07:07.392Z,46.96
2022-10-02T00:09:42.270Z,46.97
2022-10-02T00:12:15.693Z,47.00
2022-10-02T00:14:46.278Z,46.89
2022-10-02T00:17:21.867Z,47.04
2022-10-02T00:19:53.810Z,46.84
2022-10-02T00:22:33.355Z,47.05
2022-10-02T00:25:06.597Z,47.13
2022-10-02T00:27:49.848Z,47.09
2022-10-02T00:30:18.970Z,46.80
2022-10-02T00:33:02.433Z,46.98
2022-10-02T00:36:02.382Z,46.95
2022-10-02T00:38:44.713Z,47.06
2022-10-02T00:41:44.391Z,46.98
2022-10-02T00:44:28.168Z,47.00
2022-10-02T00:47:03.341Z,46.87
2022-10-02T00:49:48.789Z,47.12
2022-10-02T00:52:36.768Z,47.20
2022-10-02T00:55:31.448Z,47.23
2022-10-02T00:58:15.968Z,47.19
2022-10-02T01:00:54.860Z,47.11
2022-10-02T01:03:28.218Z,47.17
2022-10-02T01:05:56.399Z,47.15
2022-10-02T01:08:24.617Z,47.44
2022-10-02T01:10:52.701Z,47.15
2022-10-02T01:13:21.696Z,47.06
2022-10-02T01:15:54.408Z,47.03
2022-10-02T01:18:22.830Z,47.18
2022-10-02T01:20:54.429Z,47.34
2022-10-02T01:23:31.592Z,47.20
2022-10-02T01:26:00.179Z,47.39
2022-10-02T01:28:29.257Z,47.37
2022-10-02T01:31:02.262Z,47.18
2022-10-02T01:33:31.183Z,47.45
2022-10-02T01:35:59.239Z,47.27
2022-10-02T01:38:28.575Z,47.32
2022-10-02T01:40:56.802Z,47.48
2022-10-02T01:43:28.568Z,47.32
2022-10-02T01:46:15.001Z,47.34
2022-10-02T01:48:47.232Z,47.54
2022-10-02T01:51:46.471Z,47.29
2022-10-02T01:54:25.547Z,47.43
2022-10-02T01:57:06.422Z,47.63
2022-10-02T01:59:46.397Z,47.47
2022-10-02T02:02:21.290Z,47.54
2022-10-02T02:04:57.517Z,47.37
2022-10-02T02:07:34.983Z,47.45
2022-10-02T02:10:13.391Z,47.63
2022-10-02T02:12:45.482Z,47.49
2022-10-02T02:15:20.064Z,47.48
2022-10-02T02:17:52.214Z,47.37
2022-10-02T02:20:25.168Z,47.58
2022-10-02T02:22:55.183Z,47.53
2022-10-02T02:25:26.295Z,47.80
2022-10-02T02:27:58.606Z,47.69
2022-10-02T02:30:31.005Z,47.38
2022-10-02T02:33:05.508Z,47.71
2022-10-02T02:35:39.094Z,47.82
2022-10-02T02:38:10.010Z,47.49
2022-10-02T02:40:43.449Z,47.51
2022-10-02T02:43:17.297Z,47.63
2022-10-02T02:45:50.209Z,47.45
2022-10-02T02:48:23.847Z,47.30
2022-10-02T02:50:56.254Z,47.68
2022-10-02T02:53:28.043Z,47.54
2022-10-02T02:55:59.844Z,47.55
2022-10-02T02:58:31.285Z,47.57
2022-10-02T03:00:59.496Z,47.63
2022-10-02T03:03:27.603Z,47.76
2022-10-02T03:06:03.322Z,47.74
2022-10-02T03:08:35.792Z,47.72
2022-10-02T03:11:18.729Z,47.81
2022-10-02T03:13:58.358Z,47.85
2022-10-02T03:16:39.623Z,47.89
2022-10-02T03:19:21.009Z,47.92
2022-10-02T03:22:02.260Z,48.05
2022-10-02T03:24:36.415Z,47.78
2022-10-02T03:27:08.900Z,47.90
2022-10-02T03:29:43.766Z,47.55
2022-10-02T03:32:15.084Z,47.85
2022-10-02T03:34:43.669Z,47.79
2022-10-02T03:37:12.545Z,47.83
2022-10-02T03:39:43.987Z,47.83
2022-10-02T03:42:14.664Z,47.61
2022-10-02T03:44:43.095Z,47.73
2022-10-02T03:47:11.100Z,47.90
2022-10-02T03:49:40.100Z,47.93
2022-10-02T03:52:13.450Z,47.87
2022-10-02T03:54:41.625Z,47.93
2022-10-02T03:57:17.688Z,47.52
2022-10-02T03:59:53.698Z,47.91
2022-10-02T04:02:33.323Z,47.76
2022-10-02T04:05:09.490Z,47.92
2022-10-02T04:07:42.253Z,47.98
2022-10-02T04:10:27.606Z,47.82
2022-10-02T04:13:02.110Z,47.79
2022-10-02T04:15:39.858Z,47.76
2022-10-02T04:18:16.025Z,47.84
2022-10-02T04:20:50.361Z,47.08
2022-10-02T04:23:25.845Z,47.22
2022-10-02T04:26:00.000Z,47.15
2022-10-02T04:28:34.928Z,47.46
2022-10-02T04:31:05.617Z,47.73
2022-10-02T04:33:38.241Z,47.59
2022-10-02T04:36:18.415Z,47.58
2022-10-02T04:39:05.190Z,47.58
2022-10-02T04:41:48.986Z,47.60
2022-10-02T04:44:30.925Z,47.76
2022-10-02T04:47:19.736Z,47.56
2022-10-02T04:50:15.942Z,47.83
2022-10-02T04:53:01.023Z,47.78
2022-10-02T04:55:43.293Z,47.67
2022-10-02T04:58:31.115Z,47.54
2022-10-02T05:01:08.976Z,47.72
2022-10-02T05:03:55.569Z,47.91
2022-10-02T05:06:41.551Z,47.84
2022-10-02T05:09:18.645Z,47.97
2022-10-02T05:11:57.853Z,47.85
2022-10-02T05:14:45.931Z,48.00
2022-10-02T05:17:29.605Z,47.74
2022-10-02T05:20:17.149Z,47.83
2022-10-02T05:23:04.508Z,47.92
2022-10-02T05:25:56.848Z,47.89
2022-10-02T05:28:40.648Z,47.84
2022-10-02T05:31:21.523Z,48.00
2022-10-02T05:34:01.447Z,47.87
2022-10-02T05:36:47.237Z,47.76
2022-10-02T05:39:18.507Z,48.13
2022-10-02T05:41:54.850Z,48.17
2022-10-02T05:44:28.378Z,47.90
2022-10-02T05:47:02.756Z,47.88
2022-10-02T05:49:34.864Z,47.99
2022-10-02T05:52:07.561Z,48.18
2022-10-02T05:54:43.174Z,48.05
2022-10-02T05:57:16.605Z,47.92
2022-10-02T05:59:56.565Z,48.08
2022-10-02T06:02:36.751Z,47.90
2022-10-02T06:05:14.938Z,48.13
2022-10-02T06:07:45.835Z,48.06
2022-10-02T06:10:19.073Z,47.99
2022-10-02T06:12:53.468Z,48.15
2022-10-02T06:15:26.290Z,48.09
2022-10-02T06:17:59.790Z,48.28
2022-10-02T06:20:34.498Z,48.09
2022-10-02T06:23:07.962Z,48.01
2022-10-02T06:25:42.585Z,48.09
2022-10-02T06:28:16.267Z,48.38
2022-10-02T06:30:46.613Z,48.23
2022-10-02T06:33:19.753Z,48.22
2022-10-02T06:36:08.458Z,48.10
2022-10-02T06:39:03.352Z,48.31
2022-10-02T06:41:40.893Z,48.27
2022-10-02T06:44:18.084Z,48.39
2022-10-02T06:46:56.929Z,48.49
2022-10-02T06:49:36.485Z,48.19
2022-10-02T06:52:15.936Z,48.44
2022-10-02T06:54:58.612Z,48.34
2022-10-02T06:57:53.839Z,48.20
2022-10-02T07:00:22.419Z,47.98
2022-10-02T07:03:08.504Z,47.41
2022-10-02T07:06:16.502Z,47.06
2022-10-02T07:09:03.068Z,47.20
2022-10-02T07:11:40.283Z,47.17
2022-10-02T07:14:27.375Z,47.06
2022-10-02T07:17:21.521Z,47.10
2022-10-02T07:20:06.117Z,47.39
2022-10-02T07:22:51.507Z,47.19
2022-10-02T07:25:34.101Z,47.05
2022-10-02T07:28:12.121Z,46.97
2022-10-02T07:30:48.895Z,46.88
2022-10-02T07:33:30.038Z,46.97
2022-10-02T07:36:05.294Z,46.64
2022-10-02T07:39:02.731Z,46.76
2022-10-02T07:41:52.986Z,46.63
2022-10-02T07:44:55.908Z,46.85
2022-10-02T07:47:46.055Z,46.64
2022-10-02T07:50:18.755Z,46.47
2022-10-02T07:52:57.579Z,46.54
2022-10-02T07:55:26.679Z,46.55
2022-10-02T07:58:02.525Z,46.30
2022-10-02T08:00:36.236Z,46.48
2022-10-02T08:03:10.115Z,46.35
2022-10-02T08:05:41.569Z,46.43
2022-10-02T08:08:16.289Z,46.23
2022-10-02T08:10:51.483Z,46.29
2022-10-02T08:13:24.079Z,46.18
2022-10-02T08:15:55.215Z,46.08
2022-10-02T08:18:35.554Z,45.95
2022-10-02T08:21:09.695Z,46.04
2022-10-02T08:23:43.304Z,46.11
2022-10-02T08:26:17.778Z,46.00
2022-10-02T08:28:56.283Z,45.99
2022-10-02T08:31:25.242Z,46.17
2022-10-02T08:33:53.436Z,45.75
2022-10-02T08:36:42.988Z,45.94
2022-10-02T08:39:33.918Z,45.78
2022-10-02T08:42:26.677Z,45.93
2022-10-02T08:45:19.509Z,45.68
2022-10-02T08:48:23.124Z,45.68
2022-10-02T08:51:21.523Z,45.56
2022-10-02T08:54:16.006Z,45.58
2022-10-02T08:57:05.981Z,45.13
2022-10-02T09:00:08.396Z,45.18
2022-10-02T09:03:24.125Z,44.94
2022-10-02T09:06:30.256Z,45.03
2022-10-02T09:09:46.639Z,44.90
2022-10-02T09:12:44.080Z,45.06
2022-10-02T09:15:23.301Z,45.30
2022-10-02T09:18:10.079Z,45.06
2022-10-02T09:21:01.512Z,45.09
2022-10-02T09:24:12.545Z,44.97
2022-10-02T09:27:00.481Z,44.78
2022-10-02T09:30:08.974Z,44.78
2022-10-02T09:33:38.830Z,44.52
2022-10-02T09:36:45.307Z,44.59
2022-10-02T09:39:48.798Z,44.38
2022-10-02T09:42:38.476Z,44.34
2022-10-02T09:45:40.137Z,44.40
2022-10-02T09:48:48.613Z,44.32
2022-10-02T09:51:57.219Z,44.03
2022-10-02T09:54:55.881Z,44.04
2022-10-02T09:57:54.868Z,44.18
2022-10-02T10:00:37.166Z,44.04
2022-10-02T10:03:37.611Z,44.34
2022-10-02T10:06:45.697Z,44.32
2022-10-02T10:09:46.468Z,44.27
2022-10-02T10:13:01.037Z,44.03
2022-10-02T10:16:13.709Z,44.30
2022-10-02T10:19:11.694Z,44.54
2022-10-02T10:22:02.319Z,44.41
2022-10-02T10:24:51.769Z,44.72
2022-10-02T10:27:56.072Z,44.75
2022-10-02T10:31:04.659Z,44.96
2022-10-02T10:34:09.377Z,45.00
2022-10-02T10:37:14.550Z,45.03
2022-10-02T10:40:24.455Z,45.04
2022-10-02T10:43:16.433Z,45.07
2022-10-02T10:45:55.891Z,45.27
2022-10-02T10:48:49.182Z,45.01
2022-10-02T10:51:38.752Z,45.11
2022-10-02T10:54:40.086Z,45.04
2022-10-02T10:57:22.849Z,45.10
2022-10-02T11:00:13.652Z,45.17
2022-10-02T11:02:54.774Z,45.18
2022-10-02T11:05:39.638Z,45.06
2022-10-02T11:08:30.784Z,45.16
2022-10-02T11:11:11.787Z,45.11
2022-10-02T11:13:55.441Z,44.99
2022-10-02T11:16:49.784Z,44.84
2022-10-02T11:19:37.129Z,45.03
2022-10-02T11:22:21.129Z,45.00
2022-10-02T11:25:32.999Z,45.01
2022-10-02T11:28:51.734Z,45.02
2022-10-02T11:31:59.105Z,45.07
2022-10-02T11:34:43.310Z,45.24
2022-10-02T11:37:31.255Z,44.99
2022-10-02T11:40:40.191Z,45.05
2022-10-02T11:43:32.075Z,45.36
2022-10-02T11:46:06.409Z,45.33
2022-10-02T11:49:26.386Z,45.30
2022-10-02T11:52:21.606Z,45.24
2022-10-02T11:55:04.616Z,45.03
2022-10-02T11:57:46.801Z,45.34
2022-10-02T12:00:39.028Z,45.34
2022-10-02T12:03:17.530Z,45.19
2022-10-02T12:05:58.424Z,44.94
2022-10-02T12:08:42.228Z,45.15
2022-10-02T12:11:19.826Z,45.20
2022-10-02T12:14:09.686Z,44.92
2022-10-02T12:16:51.937Z,44.90
2022-10-02T12:19:33.919Z,44.91
2022-10-02T12:22:29.581Z,44.93
2022-10-02T12:25:33.505Z,44.94
2022-10-02T12:28:13.221Z,44.82
2022-10-02T12:30:45.963Z,45.15
2022-10-02T12:33:33.974Z,45.03
2022-10-02T12:36:23.718Z,44.64
2022-10-02T12:39:04.546Z,44.90
2022-10-02T12:41:48.091Z,44.93
2022-10-02T12:44:53.068Z,44.71
2022-10-02T12:47:48.088Z,44.42
2022-10-02T12:50:26.830Z,44.55
2022-10-02T12:53:22.725Z,44.52
2022-10-02T12:56:41.162Z,44.51
2022-10-02T12:59:18.513Z,44.40
2022-10-02T13:02:11.655Z,44.34
2022-10-02T13:05:14.751Z,44.47
2022-10-02T13:08:13.606Z,44.55
2022-10-02T13:10:46.452Z,44.44
2022-10-02T13:13:31.137Z,44.45
2022-10-02T13:16:08.087Z,44.47
2022-10-02T13:18:59.138Z,44.62
2022-10-02T13:21:38.421Z,44.51
2022-10-02T13:24:19.561Z,44.57
2022-10-02T13:26:55.707Z,44.43
2022-10-02T13:29:42.303Z,44.68
2022-10-02T13:32:23.587Z,44.45
2022-10-02T13:35:18.444Z,44.41
2022-10-02T13:37:57.216Z,44.39
2022-10-02T13:40:30.508Z,44.38
2022-10-02T13:43:24.961Z,44.74
2022-10-02T13:46:01.837Z,44.64
2022-10-02T13:48:42.798Z,44.34
2022-10-02T13:51:18.921Z,44.45
2022-10-02T13:54:13.197Z,44.35
2022-10-02T13:56:50.732Z,44.52
2022-10-02T13:59:45.223Z,44.33
2022-10-02T14:02:22.349Z,44.54
2022-10-02T14:04:58.512Z,44.39
2022-10-02T14:07:41.074Z,44.39
2022-10-02T14:10:22.516Z,44.27
2022-10-02T14:13:17.554Z,44.70
2022-10-02T14:16:09.930Z,44.56
2022-10-02T14:18:54.842Z,44.75
2022-10-02T14:21:30.773Z,44.53
2022-10-02T14:24:56.487Z,44.44
2022-10-02T14:27:57.853Z,44.35
2022-10-02T14:30:37.405Z,44.49
2022-10-02T14:33:16.188Z,44.88
2022-10-02T14:35:52.149Z,44.66
2022-10-02T14:38:30.970Z,44.58
2022-10-02T14:41:09.575Z,44.66
2022-10-02T14:43:59.052Z,44.81
2022-10-02T14:46:40.130Z,44.87
2022-10-02T14:49:44.558Z,44.78
2022-10-02T14:52:29.903Z,44.89
2022-10-02T14:55:15.543Z,45.07
2022-10-02T14:58:14.766Z,45.07
2022-10-02T15:01:00.991Z,45.01
2022-10-02T15:04:04.819Z,45.21
2022-10-02T15:06:56.699Z,45.14
2022-10-02T15:09:28.536Z,45.02
2022-10-02T15:12:09.724Z,45.34
2022-10-02T15:14:47.881Z,45.35
2022-10-02T15:17:45.101Z,45.29
2022-10-02T15:20:23.788Z,45.21
2022-10-02T15:22:59.273Z,45.40
2022-10-02T15:25:49.580Z,45.41
2022-10-02T15:28:41.826Z,45.38
2022-10-02T15:31:21.030Z,45.50
2022-10-02T15:33:58.922Z,45.64
2022-10-02T15:36:46.186Z,45.43
2022-10-02T15:39:44.762Z,45.57
2022-10-02T15:42:19.396Z,45.77
2022-10-02T15:45:15.152Z,45.77
2022-10-02T15:48:07.627Z,45.69
2022-10-02T15:50:51.882Z,45.86
2022-10-02T15:53:33.073Z,45.81
2022-10-02T15:56:16.113Z,45.91
2022-10-02T15:59:00.375Z,45.86
2022-10-02T16:01:44.202Z,45.96
2022-10-02T16:04:25.327Z,45.79
2022-10-02T16:07:36.587Z,46.03
2022-10-02T16:10:18.933Z,45.92
2022-10-02T16:13:01.240Z,46.08
2022-10-02T16:15:40.322Z,46.01
2022-10-02T16:18:35.910Z,45.96
2022-10-02T16:21:26.321Z,45.86
2022-10-02T16:24:08.119Z,45.65
2022-10-02T16:27:02.842Z,45.53
2022-10-02T16:29:41.558Z,45.74
2022-10-02T16:32:18.325Z,45.66
2022-10-02T16:35:10.558Z,45.74
2022-10-02T16:37:45.984Z,45.70
2022-10-02T16:40:28.805Z,45.98
2022-10-02T16:43:28.330Z,45.96
2022-10-02T16:46:05.344Z,45.88
2022-10-02T16:48:46.961Z,45.75
2022-10-02T16:51:28.010Z,45.89
2022-10-02T16:54:04.859Z,46.12
2022-10-02T16:56:40.637Z,45.99
2022-10-02T16:59:16.142Z,46.09
2022-10-02T17:02:15.919Z,45.93
2022-10-02T17:04:49.594Z,45.94
2022-10-02T17:07:41.148Z,45.92
2022-10-02T17:10:20.278Z,45.77
2022-10-02T17:12:56.116Z,45.91
2022-10-02T17:15:33.693Z,45.91
2022-10-02T17:18:13.524Z,45.91
2022-10-02T17:20:48.048Z,45.95
2022-10-02T17:23:24.192Z,46.12
2022-10-02T17:25:59.752Z,45.59
2022-10-02T17:28:35.474Z,45.98
2022-10-02T17:31:23.165Z,45.67
2022-10-02T17:33:55.984Z,45.85
2022-10-02T17:36:33.155Z,45.94
2022-10-02T17:39:30.551Z,45.99
2022-10-02T17:42:09.721Z,45.69
2022-10-02T17:44:56.281Z,45.80
2022-10-02T17:47:37.509Z,45.76
2022-10-02T17:50:33.784Z,45.69
2022-10-02T17:53:33.625Z,45.74
2022-10-02T17:56:28.884Z,45.93
2022-10-02T17:59:23.572Z,45.71
2022-10-02T18:02:03.190Z,45.82
2022-10-02T18:04:45.169Z,45.70
2022-10-02T18:07:37.834Z,45.49
2022-10-02T18:10:20.238Z,45.74
2022-10-02T18:13:14.523Z,45.71
2022-10-02T18:15:55.098Z,45.71
2022-10-02T18:18:32.979Z,45.74
2022-10-02T18:21:23.051Z,45.53
2022-10-02T18:24:18.663Z,45.50
2022-10-02T18:27:03.529Z,45.40
2022-10-02T18:29:54.587Z,45.28
2022-10-02T18:32:44.141Z,45.56
2022-10-02T18:35:34.659Z,45.40
2022-10-02T18:38:13.309Z,45.47
2022-10-02T18:41:01.132Z,45.31
2022-10-02T18:43:45.383Z,45.13
2022-10-02T18:46:23.073Z,45.23
2022-10-02T18:49:20.924Z,45.27
2022-10-02T18:52:16.120Z,45.31
2022-10-02T18:54:58.240Z,45.02
2022-10-02T18:57:42.581Z,45.22
2022-10-02T19:00:21.442Z,45.49
2022-10-02T19:03:17.559Z,45.50
2022-10-02T19:05:53.506Z,45.64
2022-10-02T19:08:28.404Z,45.42
2022-10-02T19:10:56.681Z,45.49
2022-10-02T19:13:28.185Z,45.81
2022-10-02T19:16:00.131Z,45.62
2022-10-02T19:18:30.839Z,45.64
2022-10-02T19:21:06.222Z,45.75
2022-10-02T19:23:38.982Z,45.68
2022-10-02T19:26:17.273Z,45.80
2022-10-02T19:28:48.960Z,45.79
2022-10-02T19:31:22.813Z,45.63
2022-10-02T19:33:54.031Z,45.58
2022-10-02T19:36:25.552Z,45.62
2022-10-02T19:38:58.844Z,45.64
2022-10-02T19:41:27.495Z,45.66
2022-10-02T19:44:02.476Z,45.75
2022-10-02T19:46:39.216Z,45.71
2022-10-02T19:49:14.401Z,45.83
2022-10-02T19:51:45.040Z,45.73
2022-10-02T19:54:19.660Z,45.76
2022-10-02T19:56:51.612Z,45.79
2022-10-02T19:59:24.621Z,45.84
2022-10-02T20:01:54.587Z,45.84
2022-10-02T20:04:25.368Z,45.98
2022-10-02T20:06:58.626Z,45.60
2022-10-02T20:09:33.347Z,45.88
2022-10-02T20:12:06.062Z,45.70
2022-10-02T20:14:41.021Z,45.78
2022-10-02T20:17:12.151Z,45.87
2022-10-02T20:19:44.968Z,45.81
2022-10-02T20:22:23.274Z,45.56
2022-10-02T20:24:57.202Z,45.66
2022-10-02T20:27:35.568Z,45.83
2022-10-02T20:30:11.633Z,45.97
2022-10-02T20:32:46.127Z,45.62
2022-10-02T20:35:20.286Z,45.71
2022-10-02T20:37:51.450Z,46.02
2022-10-02T20:40:25.364Z,45.74
2022-10-02T20:43:00.680Z,46.19
2022-10-02T20:45:36.677Z,45.96
2022-10-02T20:48:55.609Z,45.93
2022-10-02T20:51:45.702Z,46.07
2022-10-02T20:54:46.465Z,45.87
2022-10-02T20:57:59.622Z,45.84
2022-10-02T21:00:33.273Z,45.76
2022-10-02T21:03:22.171Z,45.81
2022-10-02T21:06:18.106Z,45.87
2022-10-02T21:09:11.389Z,46.02
2022-10-02T21:12:15.356Z,45.89
2022-10-02T21:15:07.711Z,45.90
2022-10-02T21:18:11.174Z,46.03
2022-10-02T21:21:24.611Z,45.88
2022-10-02T21:24:35.807Z,45.94
2022-10-02T21:27:35.679Z,45.86
2022-10-02T21:30:11.357Z,45.82
2022-10-02T21:32:55.289Z,45.87
2022-10-02T21:35:39.817Z,45.97
2022-10-02T21:38:53.109Z,45.99
2022-10-02T21:41:58.108Z,45.87
2022-10-02T21:45:09.019Z,46.12
2022-10-02T21:48:21.385Z,46.11
2022-10-02T21:51:25.263Z,46.14
2022-10-02T21:54:29.088Z,46.04
2022-10-02T21:57:36.617Z,46.15
2022-10-02T22:00:21.245Z,46.23
2022-10-02T22:03:29.452Z,46.09
2022-10-02T22:06:25.599Z,46.18
2022-10-02T22:09:13.322Z,46.18
2022-10-02T22:11:56.536Z,46.24
2022-10-02T22:14:32.915Z,45.94
2022-10-02T22:17:13.990Z,46.27
2022-10-02T22:20:07.482Z,46.25
2022-10-02T22:22:51.180Z,46.20
2022-10-02T22:25:32.667Z,46.45
2022-10-02T22:28:14.887Z,46.37
2022-10-02T22:31:02.058Z,46.19
2022-10-02T22:33:43.768Z,46.50
2022-10-02T22:36:37.354Z,46.35
2022-10-02T22:39:14.077Z,46.29
2022-10-02T22:41:50.068Z,46.11
2022-10-02T22:44:26.246Z,46.23
2022-10-02T22:47:01.296Z,46.34
2022-10-02T22:49:36.608Z,46.44
2022-10-02T22:52:10.052Z,46.42
2022-10-02T22:54:46.457Z,46.29
2022-10-02T22:57:21.069Z,46.25
2022-10-02T22:59:55.826Z,46.47
2022-10-02T23:02:31.844Z,46.52
2022-10-02T23:05:10.099Z,46.26
2022-10-02T23:07:46.546Z,46.47
2022-10-02T23:10:25.149Z,46.60
2022-10-02T23:13:01.288Z,46.37
2022-10-02T23:15:41.918Z,46.36
2022-10-02T23:18:25.027Z,46.24
2022-10-02T23:21:02.008Z,46.45
2022-10-02T23:23:36.789Z,46.28
2022-10-02T23:26:12.391Z,46.70
2022-10-02T23:28:50.233Z,46.13
2022-10-02T23:31:29.732Z,46.40
2022-10-02T23:34:17.284Z,46.59
2022-10-02T23:36:52.293Z,46.44
2022-10-02T23:39:27.578Z,46.52
2022-10-02T23:41:58.245Z,46.58
2022-10-02T23:44:33.736Z,46.59
2022-10-02T23:47:10.738Z,46.64
2022-10-02T23:49:43.420Z,46.46
2022-10-02T23:52:28.921Z,46.87
2022-10-02T23:55:17.084Z,46.90
2022-10-02T23:58:04.393Z,46.67
